Time;durP1;ratioP1;P1;durP2;ratioP2;P2;SDS_P1;SDS_P2;PMS_P1;PMS_P2;Temp;Humidity;BMP_temperature;BMP_pressure;BME280_temperature;BME280_humidity;BME280_pressure;Samples;Min_cycle;Max_cycle;Signal;HPM_P1;HPM_P2
2021/05/09 00:01:36;;;;;;;87.17;37.93;;;;;;;3.36;55.55;100535.75;153668;1104;103569;-74
2021/05/09 00:04:40;;;;;;;83.97;37.90;;;;;;;3.34;55.97;100533.20;153616;1104;103519;-72
2021/05/09 00:07:44;;;;;;;87.50;37.23;;;;;;;3.28;55.55;100525.70;153602;1104;103300;-72
2021/05/09 00:10:47;;;;;;;87.13;37.23;;;;;;;3.21;55.76;100534.95;153689;1104;103168;-73
2021/05/09 00:13:51;;;;;;;83.35;37.18;;;;;;;3.18;56.08;100540.44;153585;1102;103134;-72
2021/05/09 00:16:54;;;;;;;70.07;33.37;;;;;;;3.16;56.07;100529.98;153613;1104;103476;-74
2021/05/09 00:19:58;;;;;;;71.53;34.43;;;;;;;3.18;56.11;100532.53;153645;1104;103222;-72
2021/05/09 00:23:02;;;;;;;63.87;31.50;;;;;;;3.15;56.44;100539.66;153555;1104;103411;-73
2021/05/09 00:26:05;;;;;;;63.80;31.18;;;;;;;3.13;56.37;100532.80;153643;1096;103123;-72
2021/05/09 00:29:09;;;;;;;66.77;32.57;;;;;;;3.13;56.19;100525.73;153614;1104;103167;-72
2021/05/09 00:32:14;;;;;;;64.27;31.23;;;;;;;3.10;56.31;100540.92;153567;1096;103252;-71
2021/05/09 00:35:27;;;;;;;62.08;31.28;;;;;;;3.04;56.50;100525.48;153636;1104;103131;-71
2021/05/09 00:38:31;;;;;;;62.35;29.30;;;;;;;3.03;56.63;100529.07;153553;1104;103304;-71
2021/05/09 00:41:38;;;;;;;64.00;29.55;;;;;;;3.01;56.67;100521.25;153603;1104;103209;-71
2021/05/09 00:44:41;;;;;;;61.23;29.43;;;;;;;2.99;56.69;100523.14;153578;1104;103202;-71
2021/05/09 00:47:47;;;;;;;61.03;29.23;;;;;;;2.93;56.79;100526.17;153602;1096;103477;-70
2021/05/09 00:50:50;;;;;;;62.07;29.13;;;;;;;2.90;56.59;100519.29;153625;1096;103134;-71
2021/05/09 00:53:55;;;;;;;64.15;30.85;;;;;;;2.86;56.70;100519.59;153629;1096;103292;-71
2021/05/09 00:57:01;;;;;;;67.20;31.70;;;;;;;2.84;56.86;100519.69;153749;1104;103171;-71
2021/05/09 01:00:11;;;;;;;63.53;29.73;;;;;;;2.85;56.76;100517.89;153675;1104;103501;-71
2021/05/09 01:03:19;;;;;;;68.95;31.23;;;;;;;2.86;57.31;100523.06;153629;1096;103162;-72
2021/05/09 01:06:23;;;;;;;69.00;33.00;;;;;;;2.90;57.34;100523.73;153679;1104;103112;-70
2021/05/09 01:09:27;;;;;;;65.60;31.00;;;;;;;2.91;56.89;100522.80;153459;1104;103376;-72
2021/05/09 01:12:30;;;;;;;71.80;32.87;;;;;;;2.88;57.12;100530.88;153652;1096;103132;-71
2021/05/09 01:15:35;;;;;;;66.97;30.67;;;;;;;2.85;56.97;100537.20;153649;1104;103167;-72
2021/05/09 01:18:42;;;;;;;70.45;33.10;;;;;;;2.80;56.94;100534.00;153510;1104;103595;-71
2021/05/09 01:21:47;;;;;;;68.83;31.50;;;;;;;2.80;57.30;100533.16;153509;1096;103297;-71
2021/05/09 01:24:59;;;;;;;90.53;36.08;;;;;;;2.78;57.28;100525.35;153607;1104;103203;-71
2021/05/09 01:28:03;;;;;;;86.40;36.45;;;;;;;2.78;57.40;100519.24;153615;1104;103212;-72
2021/05/09 01:31:18;;;;;;;92.38;36.95;;;;;;;2.77;57.28;100521.00;153545;1096;103202;-75
2021/05/09 01:34:22;;;;;;;88.18;37.23;;;;;;;2.80;57.35;100539.27;153614;1096;103143;-71
2021/05/09 01:37:26;;;;;;;96.05;37.85;;;;;;;2.85;57.43;100541.61;153582;1096;103211;-72
2021/05/09 01:40:30;;;;;;;88.15;36.68;;;;;;;2.87;57.62;100523.94;153587;1104;103276;-71
2021/05/09 01:43:37;;;;;;;95.27;37.93;;;;;;;2.86;57.62;100527.50;153681;1096;103246;-72
2021/05/09 01:46:42;;;;;;;98.17;39.20;;;;;;;2.84;58.04;100524.12;153596;1104;103591;-71
2021/05/09 01:49:46;;;;;;;92.30;35.80;;;;;;;2.87;57.49;100534.48;153561;1096;103208;-72
2021/05/09 01:52:50;;;;;;;86.93;34.47;;;;;;;2.86;57.72;100535.41;153639;1104;103138;-71
2021/05/09 01:55:54;;;;;;;82.33;31.43;;;;;;;2.87;57.79;100539.75;153576;1096;103288;-72
2021/05/09 01:59:03;;;;;;;57.60;25.63;;;;;;;2.81;58.50;100534.84;153618;1104;103164;-75
2021/05/09 02:02:13;;;;;;;52.70;24.83;;;;;;;2.79;57.91;100532.33;153615;1104;103573;-72
2021/05/09 02:05:20;;;;;;;52.38;22.83;;;;;;;2.80;57.87;100533.16;153558;1104;103254;-72
2021/05/09 02:08:24;;;;;;;46.93;22.93;;;;;;;2.83;57.77;100544.36;153665;1104;103140;-71
2021/05/09 02:11:33;;;;;;;38.35;20.25;;;;;;;2.85;58.41;100541.61;153598;1096;103289;-72
2021/05/09 02:14:47;;;;;;;38.80;19.75;;;;;;;2.83;58.34;100538.22;153729;1096;103158;-71
2021/05/09 02:17:50;;;;;;;34.00;18.53;;;;;;;2.83;58.24;100544.36;153832;1096;103142;-72
2021/05/09 02:20:57;;;;;;;35.20;18.55;;;;;;;2.86;58.55;100532.77;153681;1104;103206;-71
2021/05/09 02:24:01;;;;;;;29.33;17.90;;;;;;;2.89;58.43;100538.70;153619;1104;103205;-72
2021/05/09 02:27:05;;;;;;;29.07;16.70;;;;;;;2.92;58.58;100542.92;153595;1096;103267;-71
2021/05/09 02:30:12;;;;;;;30.17;16.77;;;;;;;2.94;58.37;100551.58;153792;1096;103140;-72
2021/05/09 02:33:17;;;;;;;27.57;16.60;;;;;;;2.98;58.44;100553.07;153806;1096;103125;-71
2021/05/09 02:36:21;;;;;;;26.70;16.10;;;;;;;3.01;58.48;100555.53;153617;1104;103575;-71
2021/05/09 02:39:25;;;;;;;25.28;15.83;;;;;;;3.02;58.42;100549.33;153652;1096;103152;-71
2021/05/09 02:42:29;;;;;;;25.70;16.30;;;;;;;3.06;58.54;100542.91;153904;1096;103272;-71
2021/05/09 02:45:33;;;;;;;29.27;16.23;;;;;;;3.09;58.38;100542.70;153730;1096;103163;-71
2021/05/09 02:48:39;;;;;;;25.90;16.17;;;;;;;3.19;58.90;100550.02;153647;1104;103142;-74
2021/05/09 02:51:43;;;;;;;28.53;15.85;;;;;;;3.23;58.75;100540.97;153612;1096;103137;-72
2021/05/09 02:54:58;;;;;;;23.68;15.30;;;;;;;3.30;59.10;100542.27;153640;1096;103131;-72
2021/05/09 02:58:02;;;;;;;26.88;15.75;;;;;;;3.39;58.90;100541.67;153767;1096;103262;-72
2021/05/09 03:01:09;;;;;;;23.23;14.47;;;;;;;3.45;58.86;100536.00;153797;1096;103595;-72
2021/05/09 03:04:14;;;;;;;25.50;15.57;;;;;;;3.52;59.01;100531.15;153661;1104;103160;-73
2021/05/09 03:07:17;;;;;;;22.65;14.73;;;;;;;3.61;58.87;100529.70;153552;1096;103153;-72
2021/05/09 03:10:21;;;;;;;23.03;14.37;;;;;;;3.69;58.82;100524.76;153680;1104;103205;-72
2021/05/09 03:13:30;;;;;;;24.97;14.53;;;;;;;3.78;59.20;100531.23;153695;1096;103313;-71
2021/05/09 03:16:54;;;;;;;22.45;14.48;;;;;;;3.93;59.00;100530.20;153681;1096;103182;-72
2021/05/09 03:19:58;;;;;;;22.93;13.77;;;;;;;4.09;59.66;100530.00;153677;1104;103141;-72
2021/05/09 03:23:01;;;;;;;18.83;11.40;;;;;;;4.28;59.52;100525.14;153581;1096;103210;-71
2021/05/09 03:26:05;;;;;;;19.03;12.05;;;;;;;4.47;59.59;100534.44;153607;1104;103563;-73
2021/05/09 03:29:08;;;;;;;19.00;12.07;;;;;;;4.61;59.69;100529.02;153584;1096;103243;-72
2021/05/09 03:32:12;;;;;;;21.50;13.33;;;;;;;4.73;59.70;100532.59;153582;1104;103212;-71
2021/05/09 03:35:16;;;;;;;20.73;13.20;;;;;;;4.83;59.61;100532.78;153589;1096;103483;-72
2021/05/09 03:38:19;;;;;;;18.40;12.80;;;;;;;4.91;59.68;100517.23;153580;1096;103204;-71
2021/05/09 03:41:24;;;;;;;18.43;11.58;;;;;;;5.00;60.10;100519.20;153575;1104;103209;-71
2021/05/09 03:44:27;;;;;;;17.57;12.27;;;;;;;5.10;59.91;100525.53;153608;1096;103205;-72
2021/05/09 03:47:31;;;;;;;18.00;11.55;;;;;;;5.22;60.16;100530.89;153840;1096;103213;-72
2021/05/09 03:50:34;;;;;;;18.23;12.25;;;;;;;5.33;60.04;100538.86;153627;1104;103211;-72
2021/05/09 03:53:38;;;;;;;17.20;11.80;;;;;;;5.39;60.13;100522.55;153610;1096;104240;-72
2021/05/09 03:56:41;;;;;;;18.35;11.50;;;;;;;5.54;60.02;100523.20;153733;1104;103598;-72
2021/05/09 03:59:45;;;;;;;17.20;11.15;;;;;;;5.66;59.84;100524.95;153621;1096;103224;-70
2021/05/09 04:02:48;;;;;;;14.90;10.28;;;;;;;5.81;60.31;100522.96;153848;1096;103635;-71
2021/05/09 04:05:53;;;;;;;12.68;9.45;;;;;;;5.94;60.20;100506.96;153698;1096;103203;-73
2021/05/09 04:08:56;;;;;;;14.70;10.30;;;;;;;6.06;60.29;100505.20;153618;1096;103213;-74
2021/05/09 04:12:00;;;;;;;13.58;9.35;;;;;;;6.17;60.41;100505.23;153605;1096;103142;-72
2021/05/09 04:15:05;;;;;;;12.25;8.78;;;;;;;6.34;60.63;100500.44;153558;1104;103223;-72
2021/05/09 04:18:09;;;;;;;16.48;10.10;;;;;;;6.48;60.13;100500.19;153634;1104;103174;-72
2021/05/09 04:21:13;;;;;;;14.53;8.97;;;;;;;6.70;59.90;100504.66;153631;1096;103199;-72
2021/05/09 04:24:16;;;;;;;12.05;8.15;;;;;;;6.93;59.99;100496.64;153575;1104;103126;-72
2021/05/09 04:27:19;;;;;;;12.07;8.67;;;;;;;7.16;59.49;100494.78;153600;1104;103566;-72
2021/05/09 04:30:25;;;;;;;13.00;8.50;;;;;;;7.34;59.85;100487.97;153569;1104;103664;-71
2021/05/09 04:33:29;;;;;;;13.75;8.18;;;;;;;7.46;59.89;100486.95;153667;1104;103205;-72
2021/05/09 04:36:32;;;;;;;12.13;7.93;;;;;;;7.53;59.44;100487.30;153569;1104;103506;-72
2021/05/09 04:39:36;;;;;;;11.17;8.03;;;;;;;7.59;59.45;100480.63;153613;1104;103202;-74
2021/05/09 04:42:39;;;;;;;11.73;8.27;;;;;;;7.62;59.89;100473.25;153600;1104;103208;-71
2021/05/09 04:45:46;;;;;;;11.37;8.50;;;;;;;7.63;59.19;100477.58;153625;1104;103295;-72
2021/05/09 04:48:49;;;;;;;11.38;8.28;;;;;;;7.63;59.51;100471.44;153716;1096;103223;-72
2021/05/09 04:51:53;;;;;;;13.68;8.68;;;;;;;7.64;59.17;100473.10;153754;1104;103206;-72
2021/05/09 04:54:56;;;;;;;14.67;9.10;;;;;;;7.71;59.09;100473.45;153624;1096;103144;-74
2021/05/09 04:58:00;;;;;;;12.53;8.50;;;;;;;7.85;59.49;100478.42;153581;1104;103211;-72
2021/05/09 05:01:05;;;;;;;12.37;8.93;;;;;;;8.04;59.79;100475.91;153571;1096;103784;-71
2021/05/09 05:04:08;;;;;;;12.65;8.98;;;;;;;8.23;59.53;100474.30;153615;1096;103172;-71
2021/05/09 05:07:12;;;;;;;16.28;9.63;;;;;;;8.43;59.38;100469.97;153611;1096;103240;-71
2021/05/09 05:10:15;;;;;;;14.50;9.65;;;;;;;8.61;59.19;100465.67;153582;1104;103521;-72
2021/05/09 05:13:20;;;;;;;13.70;9.00;;;;;;;8.80;59.08;100472.04;153603;1096;103136;-72
2021/05/09 05:16:24;;;;;;;12.07;8.63;;;;;;;8.99;58.98;100474.73;153661;1096;103566;-72
2021/05/09 05:19:27;;;;;;;10.85;8.00;;;;;;;9.18;58.82;100471.27;153608;1104;103347;-72
2021/05/09 05:22:31;;;;;;;13.13;8.67;;;;;;;9.38;58.12;100469.44;153672;1096;103163;-72
2021/05/09 05:25:34;;;;;;;12.50;8.88;;;;;;;9.51;58.10;100478.99;153609;1104;103128;-72
2021/05/09 05:28:38;;;;;;;14.40;8.50;;;;;;;9.62;58.35;100481.48;153626;1104;103686;-73
2021/05/09 05:31:41;;;;;;;11.83;8.60;;;;;;;9.78;57.70;100484.42;153570;1104;103272;-72
2021/05/09 05:34:45;;;;;;;13.15;8.45;;;;;;;9.87;57.98;100481.88;153662;1104;103254;-72
2021/05/09 05:37:48;;;;;;;13.10;8.00;;;;;;;9.96;57.38;100487.19;153968;1096;103123;-73
2021/05/09 05:40:55;;;;;;;15.05;10.00;;;;;;;10.07;57.08;100488.86;153693;1095;103145;-73
2021/05/09 05:43:58;;;;;;;14.55;9.25;;;;;;;10.19;57.55;100484.20;153920;1096;103251;-71
2021/05/09 05:47:01;;;;;;;15.17;8.93;;;;;;;10.30;56.95;100480.53;153937;1096;103256;-72
2021/05/09 05:50:06;;;;;;;13.20;8.60;;;;;;;10.38;57.06;100481.50;153757;1104;103229;-71
2021/05/09 05:53:10;;;;;;;10.87;7.33;;;;;;;10.49;56.86;100477.81;153799;1096;103148;-73
2021/05/09 05:56:13;;;;;;;16.43;7.58;;;;;;;10.59;56.65;100475.93;153641;1104;103431;-71
2021/05/09 05:59:17;;;;;;;10.33;7.30;;;;;;;10.67;57.17;100477.03;153711;1097;103141;-71
2021/05/09 06:02:21;;;;;;;13.00;8.60;;;;;;;10.73;57.09;100463.08;153706;1104;103636;-71
2021/05/09 06:05:24;;;;;;;12.37;8.03;;;;;;;10.80;56.17;100465.00;153653;1104;103228;-73
2021/05/09 06:08:28;;;;;;;11.53;7.15;;;;;;;10.84;56.28;100459.38;153735;1096;103129;-72
2021/05/09 06:11:31;;;;;;;9.60;6.60;;;;;;;10.86;56.40;100466.23;153673;1097;103236;-73
2021/05/09 06:14:35;;;;;;;12.00;6.87;;;;;;;10.92;55.67;100462.13;153785;1104;103149;-72
2021/05/09 06:17:40;;;;;;;8.43;6.20;;;;;;;10.97;55.27;100454.48;153720;1104;103183;-72
2021/05/09 06:20:44;;;;;;;8.97;6.20;;;;;;;11.00;55.74;100449.69;153727;1104;103208;-71
2021/05/09 06:23:47;;;;;;;8.93;6.13;;;;;;;11.04;55.61;100438.72;153725;1104;103563;-72
2021/05/09 06:26:51;;;;;;;9.60;6.73;;;;;;;11.08;55.41;100440.09;153813;1104;103673;-71
2021/05/09 06:29:54;;;;;;;7.33;5.63;;;;;;;11.13;55.44;100440.48;153425;1104;103285;-73
2021/05/09 06:32:58;;;;;;;8.30;5.90;;;;;;;11.20;54.99;100433.52;153682;1104;103385;-71
2021/05/09 06:36:01;;;;;;;10.83;7.10;;;;;;;11.27;55.28;100447.13;153518;1097;103160;-73
2021/05/09 06:39:06;;;;;;;27.23;10.88;;;;;;;11.34;55.63;100450.87;153518;1104;103136;-71
2021/05/09 06:42:10;;;;;;;11.33;6.90;;;;;;;11.45;55.19;100437.28;153749;1104;103150;-72
2021/05/09 06:45:22;;;;;;;8.90;6.30;;;;;;;11.57;54.93;100443.22;153760;1104;103139;-72
2021/05/09 06:48:26;;;;;;;9.77;5.40;;;;;;;11.66;54.11;100444.94;153752;1104;103206;-72
2021/05/09 06:51:29;;;;;;;11.10;5.60;;;;;;;11.76;54.48;100447.54;153689;1097;103181;-71
2021/05/09 06:54:33;;;;;;;7.97;5.00;;;;;;;11.87;54.43;100449.93;153691;1096;103154;-70
2021/05/09 06:57:37;;;;;;;7.60;5.23;;;;;;;11.97;54.26;100434.67;153675;1104;103125;-72
2021/05/09 07:00:40;;;;;;;6.90;5.30;;;;;;;12.11;52.75;100435.09;153717;1096;103135;-72
2021/05/09 07:03:43;;;;;;;8.50;4.67;;;;;;;12.19;53.53;100435.13;153683;1104;103129;-71
2021/05/09 07:06:47;;;;;;;6.28;4.75;;;;;;;12.30;53.54;100439.38;153453;1096;103149;-70
2021/05/09 07:09:50;;;;;;;6.77;4.60;;;;;;;12.38;53.66;100442.08;153593;1096;103138;-73
2021/05/09 07:12:55;;;;;;;6.63;4.70;;;;;;;12.44;53.45;100432.57;153738;1096;103128;-71
2021/05/09 07:15:59;;;;;;;7.53;4.67;;;;;;;12.49;52.74;100431.09;153744;1104;103490;-70
2021/05/09 07:19:05;;;;;;;12.10;5.53;;;;;;;12.53;52.30;100432.44;153532;1096;103260;-68
2021/05/09 07:22:12;;;;;;;6.50;4.60;;;;;;;12.61;52.70;100428.95;153604;1104;103149;-68
2021/05/09 07:25:16;;;;;;;6.60;4.40;;;;;;;12.69;52.99;100430.82;153447;1096;103537;-73
2021/05/09 07:28:21;;;;;;;7.03;4.53;;;;;;;12.80;53.25;100433.20;153458;1104;103199;-69
2021/05/09 07:31:25;;;;;;;6.13;4.28;;;;;;;12.94;52.91;100432.55;153556;1104;103623;-71
2021/05/09 07:34:28;;;;;;;6.10;4.45;;;;;;;13.07;53.14;100433.94;153583;1096;103174;-69
2021/05/09 07:37:32;;;;;;;6.98;4.95;;;;;;;13.17;52.28;100423.89;153705;1096;103534;-70
2021/05/09 07:40:36;;;;;;;6.27;4.70;;;;;;;13.34;52.78;100430.97;153601;1104;103221;-71
2021/05/09 07:43:39;;;;;;;7.47;5.07;;;;;;;13.59;51.61;100428.30;154865;1096;103258;-70
2021/05/09 07:46:43;;;;;;;7.10;4.67;;;;;;;13.90;52.08;100423.05;153611;1096;103496;-69
2021/05/09 07:49:47;;;;;;;7.00;4.37;;;;;;;14.31;52.46;100414.05;153938;1101;103305;-70
2021/05/09 07:52:52;;;;;;;7.87;4.47;;;;;;;14.62;50.98;100415.95;153993;1101;103566;-69
2021/05/09 07:55:57;;;;;;;8.07;4.47;;;;;;;14.84;51.51;100412.48;153833;1101;103135;-71
2021/05/09 07:59:00;;;;;;;6.05;4.35;;;;;;;14.99;50.74;100409.02;153617;1104;103135;-72
2021/05/09 08:02:04;;;;;;;8.00;4.57;;;;;;;15.05;49.65;100402.93;153910;1101;103563;-70
2021/05/09 08:05:09;;;;;;;5.93;4.17;;;;;;;15.09;51.06;100397.04;153961;1096;103131;-69
2021/05/09 08:08:12;;;;;;;7.55;4.70;;;;;;;15.12;50.44;100406.58;153657;1101;103254;-70
2021/05/09 08:11:16;;;;;;;7.47;4.63;;;;;;;15.24;50.03;100399.79;153724;1101;103205;-69
2021/05/09 08:14:19;;;;;;;6.58;4.30;;;;;;;15.45;50.52;100393.73;153637;1097;103139;-69
2021/05/09 08:17:23;;;;;;;6.17;4.60;;;;;;;15.64;47.41;100394.22;153485;1097;103200;-70
2021/05/09 08:20:28;;;;;;;6.80;4.18;;;;;;;15.77;49.76;100391.77;153414;1104;103323;-70
2021/05/09 08:23:34;;;;;;;5.60;4.37;;;;;;;15.78;48.98;100387.22;153621;1104;103206;-72
2021/05/09 08:26:37;;;;;;;5.83;4.10;;;;;;;15.75;49.36;100390.30;153428;1097;103275;-70
2021/05/09 08:29:42;;;;;;;7.17;4.17;;;;;;;15.78;50.35;100381.84;153523;1104;103205;-70
2021/05/09 08:32:46;;;;;;;7.13;4.27;;;;;;;15.84;48.84;100383.78;153626;1105;103138;-69
2021/05/09 08:35:49;;;;;;;6.17;4.00;;;;;;;15.84;49.53;100383.78;153388;1104;103297;-69
2021/05/09 08:38:53;;;;;;;6.08;4.40;;;;;;;15.87;49.59;100383.42;153470;1104;103230;-70
2021/05/09 08:41:56;;;;;;;6.03;4.58;;;;;;;15.88;47.81;100385.11;153493;1097;103136;-71
2021/05/09 08:45:00;;;;;;;7.20;4.30;;;;;;;15.87;49.06;100380.73;153731;1096;103231;-70
2021/05/09 08:48:05;;;;;;;5.98;3.90;;;;;;;15.81;48.36;100373.41;153576;1097;103205;-70
2021/05/09 08:51:08;;;;;;;6.03;3.90;;;;;;;15.82;48.09;100378.61;153464;1097;103649;-71
2021/05/09 08:54:12;;;;;;;5.35;3.95;;;;;;;15.80;47.59;100391.42;153651;1097;103145;-70
2021/05/09 08:57:16;;;;;;;5.93;3.77;;;;;;;15.79;47.86;100388.91;153483;1104;103086;-70
2021/05/09 09:00:22;;;;;;;7.43;4.70;;;;;;;15.82;48.53;100385.83;153429;1097;103519;-68
2021/05/09 09:03:27;;;;;;;5.63;3.50;;;;;;;15.89;48.50;100381.39;153479;1104;103256;-70
2021/05/09 09:06:44;;;;;;;5.50;3.85;;;;;;;15.92;48.01;100378.34;153457;1104;103209;-70
2021/05/09 09:09:50;;;;;;;5.50;3.90;;;;;;;15.97;47.64;100385.84;153494;1104;103238;-70
2021/05/09 09:12:53;;;;;;;9.17;4.33;;;;;;;16.00;47.79;100375.55;154986;1097;103152;-70
2021/05/09 09:15:59;;;;;;;4.80;3.30;;;;;;;16.04;47.70;100376.02;153548;1104;103135;-70
2021/05/09 09:19:10;;;;;;;5.47;3.60;;;;;;;16.10;47.65;100369.88;153395;1104;103139;-71
2021/05/09 09:22:14;;;;;;;5.17;3.47;;;;;;;16.15;47.07;100366.62;153450;1104;103292;-65
2021/05/09 09:25:19;;;;;;;5.00;3.08;;;;;;;16.21;47.46;100363.20;153487;1104;103153;-71
2021/05/09 09:28:33;;;;;;;6.48;3.73;;;;;;;16.28;47.53;100364.10;153504;1104;103216;-65
2021/05/09 09:31:38;;;;;;;5.38;3.70;;;;;;;16.34;46.49;100360.68;153583;1096;103135;-66
2021/05/09 09:34:44;;;;;;;4.40;3.30;;;;;;;16.38;46.81;100355.73;153498;1104;103323;-66
2021/05/09 09:37:47;;;;;;;5.20;3.13;;;;;;;16.42;46.75;100349.80;153422;1104;103266;-66
2021/05/09 09:41:16;;;;;;;3.87;2.77;;;;;;;16.45;45.70;100351.27;153485;1104;103200;-65
2021/05/09 09:44:19;;;;;;;6.00;3.80;;;;;;;16.51;46.36;100360.45;153464;1104;103201;-64
2021/05/09 09:47:43;;;;;;;4.48;3.40;;;;;;;16.55;46.30;100354.51;153420;1104;103163;-73
2021/05/09 09:50:49;;;;;;;5.75;2.70;;;;;;;16.64;44.38;100360.60;153725;1104;103154;-66
2021/05/09 09:53:56;;;;;;;4.45;3.10;;;;;;;16.68;44.96;100360.02;153522;1104;103206;-73
2021/05/09 09:57:00;;;;;;;4.07;2.70;;;;;;;16.68;45.44;100360.02;153570;1104;103149;-66
2021/05/09 10:00:12;;;;;;;3.57;2.93;;;;;;;16.74;44.90;100349.52;153498;1104;103113;-65
2021/05/09 10:03:16;;;;;;;4.00;2.90;;;;;;;16.82;45.19;100352.11;153458;1096;103119;-65
2021/05/09 10:06:20;;;;;;;4.83;2.63;;;;;;;16.87;44.98;100358.59;153540;1096;103133;-66
2021/05/09 10:09:24;;;;;;;3.50;2.60;;;;;;;16.94;45.09;100339.81;153592;1096;103190;-67
2021/05/09 10:12:28;;;;;;;4.67;3.23;;;;;;;16.99;45.07;100339.22;153549;1096;103141;-66
2021/05/09 10:15:31;;;;;;;3.63;2.73;;;;;;;17.04;44.63;100339.48;153491;1104;103207;-66
2021/05/09 10:18:39;;;;;;;27.35;4.75;;;;;;;17.08;43.48;100338.06;153497;1096;103218;-66
2021/05/09 10:21:43;;;;;;;4.30;3.23;;;;;;;17.15;44.23;100324.63;153479;1096;103212;-66
2021/05/09 10:24:46;;;;;;;4.75;2.98;;;;;;;17.19;43.96;100342.94;153509;1104;103222;-70
2021/05/09 10:27:50;;;;;;;2.95;2.30;;;;;;;17.21;44.19;100330.09;153514;1104;103157;-65
2021/05/09 10:30:56;;;;;;;3.83;2.80;;;;;;;17.26;43.77;100319.56;153445;1104;103134;-65
2021/05/09 10:33:59;;;;;;;3.13;2.55;;;;;;;17.29;43.87;100325.59;153470;1104;103128;-68
2021/05/09 10:37:03;;;;;;;3.65;2.60;;;;;;;17.34;43.72;100328.52;153476;1096;103137;-66
2021/05/09 10:40:19;;;;;;;3.03;2.43;;;;;;;17.38;43.66;100321.70;153435;1096;103267;-65
2021/05/09 10:43:43;;;;;;;3.05;2.33;;;;;;;17.42;43.53;100326.53;153620;1104;103166;-66
2021/05/09 10:47:06;;;;;;;3.83;2.70;;;;;;;17.44;43.09;100318.25;153400;1104;103123;-66
2021/05/09 10:50:24;;;;;;;3.97;2.90;;;;;;;17.45;43.40;100317.20;153463;1096;103532;-66
2021/05/09 10:53:41;;;;;;;3.03;2.07;;;;;;;17.47;43.78;100315.13;153540;1104;103132;-66
2021/05/09 10:56:45;;;;;;;5.03;2.60;;;;;;;17.56;42.95;100315.83;153523;1104;103312;-65
2021/05/09 11:00:01;;;;;;;4.70;2.50;;;;;;;17.62;43.38;100309.64;153521;1096;103196;-68
2021/05/09 11:03:42;;;;;;;3.50;2.47;;;;;;;17.66;43.61;100300.94;153710;1104;103206;-66
2021/05/09 11:06:51;;;;;;;3.45;2.63;;;;;;;17.77;41.10;100306.83;153434;1104;103206;-68
2021/05/09 11:09:54;;;;;;;4.40;3.00;;;;;;;17.82;42.13;100315.14;153535;1104;103192;-65
2021/05/09 11:13:04;;;;;;;4.50;2.43;;;;;;;17.82;42.31;100307.05;153250;1104;103224;-67
2021/05/09 11:16:20;;;;;;;3.60;2.57;;;;;;;17.88;41.46;100317.10;153779;1104;103610;-69
2021/05/09 11:19:25;;;;;;;3.97;2.90;;;;;;;17.88;41.20;100300.91;153565;1096;103136;-69
2021/05/09 11:22:29;;;;;;;7.30;5.60;;;;;;;17.92;42.47;100291.37;153455;1096;103157;-68
2021/05/09 11:25:33;;;;;;;3.47;2.77;;;;;;;17.97;41.82;100296.16;153439;1096;103177;-71
2021/05/09 11:28:37;;;;;;;3.20;2.50;;;;;;;18.02;42.60;100282.90;153447;1104;103294;-66
2021/05/09 11:31:42;;;;;;;5.78;3.20;;;;;;;18.12;42.88;100287.92;153468;1104;103141;-69
2021/05/09 11:35:03;;;;;;;5.20;4.07;;;;;;;18.16;41.94;100283.78;153502;1104;103208;-70
2021/05/09 11:38:14;;;;;;;7.70;5.88;;;;;;;18.24;41.42;100276.34;153466;1096;103132;-70
2021/05/09 11:41:18;;;;;;;6.90;5.13;;;;;;;18.28;41.81;100274.04;153428;1097;103205;-70
2021/05/09 11:44:23;;;;;;;9.23;7.00;;;;;;;18.27;41.58;100269.69;153387;1104;103245;-70
2021/05/09 11:47:28;;;;;;;8.18;7.08;;;;;;;18.30;41.63;100271.97;153497;1097;103698;-71
2021/05/09 11:50:32;;;;;;;9.18;7.95;;;;;;;18.37;41.77;100274.70;153461;1097;103203;-71
2021/05/09 11:53:36;;;;;;;37.68;29.85;;;;;;;18.42;41.58;100278.45;153433;1104;103163;-71
2021/05/09 11:56:50;;;;;;;22.98;16.95;;;;;;;18.48;41.21;100268.70;153428;1104;103506;-69
2021/05/09 11:59:57;;;;;;;14.63;10.60;;;;;;;18.53;41.51;100262.67;153554;1104;103288;-70
2021/05/09 12:03:01;;;;;;;44.57;29.43;;;;;;;18.58;40.77;100257.50;153526;1104;103115;-70
2021/05/09 12:06:10;;;;;;;15.70;13.27;;;;;;;18.60;41.08;100258.13;153434;1104;103141;-71
2021/05/09 12:09:14;;;;;;;9.27;6.57;;;;;;;18.64;41.42;100257.49;153529;1097;103110;-71
2021/05/09 12:12:22;;;;;;;8.93;6.17;;;;;;;18.68;40.98;100266.02;153859;1104;103109;-72
2021/05/09 12:15:30;;;;;;;8.23;6.73;;;;;;;18.71;40.71;100246.70;153523;1097;103272;-72
2021/05/09 12:18:34;;;;;;;9.40;6.90;;;;;;;18.74;41.07;100243.57;153703;1096;103123;-73
2021/05/09 12:21:38;;;;;;;17.18;13.18;;;;;;;18.81;40.13;100241.74;153846;1104;103250;-71
2021/05/09 12:24:55;;;;;;;15.43;11.63;;;;;;;18.90;40.23;100241.52;153666;1104;103205;-71
2021/05/09 12:28:07;;;;;;;7.00;4.85;;;;;;;18.95;39.67;100237.16;153446;1097;103493;-71
2021/05/09 12:31:14;;;;;;;27.63;20.87;;;;;;;18.98;39.83;100228.64;153489;1096;103233;-70
2021/05/09 12:34:27;;;;;;;8.18;5.68;;;;;;;19.01;40.88;100222.83;153628;1104;103081;-70
2021/05/09 12:37:31;;;;;;;9.13;7.25;;;;;;;19.07;40.29;100215.72;153637;1104;103141;-72
2021/05/09 12:40:37;;;;;;;9.77;4.77;;;;;;;19.12;40.40;100221.34;153399;1104;103174;-69
2021/05/09 12:43:49;;;;;;;30.10;20.33;;;;;;;19.15;40.43;100218.23;153489;1097;103139;-70
2021/05/09 12:46:52;;;;;;;9.85;6.75;;;;;;;19.18;40.51;100223.20;153289;1097;103365;-70
2021/05/09 12:49:59;;;;;;;8.63;5.48;;;;;;;19.25;40.47;100214.27;153401;1097;103203;-70
2021/05/09 12:53:02;;;;;;;10.95;8.78;;;;;;;19.34;39.81;100210.27;153507;1097;103601;-70
2021/05/09 12:56:22;;;;;;;4.15;2.53;;;;;;;19.37;39.16;100221.50;153347;1097;103205;-69
2021/05/09 12:59:25;;;;;;;4.75;3.15;;;;;;;19.38;39.43;100211.50;153272;1097;103125;-69
2021/05/09 13:02:32;;;;;;;3.30;1.95;;;;;;;19.43;39.80;100219.83;153462;1097;103339;-70
2021/05/09 13:05:36;;;;;;;7.20;2.73;;;;;;;19.46;39.04;100214.00;153543;1104;103247;-70
2021/05/09 13:08:40;;;;;;;2.45;1.83;;;;;;;19.49;39.19;100202.73;153456;1104;103206;-70
2021/05/09 13:11:43;;;;;;;2.95;2.30;;;;;;;19.52;39.64;100186.08;153438;1104;103204;-69
2021/05/09 13:14:48;;;;;;;2.30;1.80;;;;;;;19.53;39.60;100192.32;153452;1097;103202;-70
2021/05/09 13:17:52;;;;;;;2.75;1.85;;;;;;;19.54;37.86;100183.99;153458;1097;103320;-70
2021/05/09 13:20:56;;;;;;;2.80;2.20;;;;;;;19.59;39.83;100192.31;153495;1096;103210;-70
2021/05/09 13:24:00;;;;;;;2.60;1.63;;;;;;;19.64;39.54;100188.13;153526;1097;103135;-70
2021/05/09 13:27:04;;;;;;;2.47;1.80;;;;;;;19.67;39.31;100182.27;153490;1104;103205;-70
2021/05/09 13:30:13;;;;;;;3.03;1.67;;;;;;;19.68;39.51;100176.64;153440;1104;103585;-69
2021/05/09 13:33:16;;;;;;;2.70;1.53;;;;;;;19.72;39.34;100177.08;153470;1104;103296;-70
2021/05/09 13:36:20;;;;;;;2.55;1.70;;;;;;;19.72;38.05;100161.66;153458;1104;103203;-70
2021/05/09 13:39:24;;;;;;;3.27;1.80;;;;;;;19.72;38.30;100161.66;153456;1097;103213;-70
2021/05/09 13:42:27;;;;;;;3.43;2.23;;;;;;;19.74;39.42;100156.03;153438;1097;103215;-70
2021/05/09 13:45:32;;;;;;;2.35;1.80;;;;;;;19.76;38.73;100153.94;153499;1097;103231;-69
2021/05/09 13:48:36;;;;;;;2.90;1.70;;;;;;;19.77;38.54;100145.61;153511;1104;104130;-69
2021/05/09 13:51:39;;;;;;;3.65;1.90;;;;;;;19.79;38.90;100148.93;153496;1096;103237;-70
2021/05/09 13:54:43;;;;;;;2.27;1.60;;;;;;;19.80;38.88;100149.75;153462;1105;103057;-70
2021/05/09 13:57:46;;;;;;;2.13;1.80;;;;;;;19.86;38.72;100146.20;153480;1104;103208;-70
2021/05/09 14:00:50;;;;;;;2.65;1.70;;;;;;;19.88;39.01;100133.27;153471;1104;103338;-70